Time;durP1;ratioP1;P1;durP2;ratioP2;P2;SDS_P1;SDS_P2;PMS_P1;PMS_P2;Temp;Humidity;BMP_temperature;BMP_pressure;BME280_temperature;BME280_humidity;BME280_pressure;Samples;Min_cycle;Max_cycle;Signal;HPM_P1;HPM_P2
2022/01/19 00:05:05;;;;;;;;;16.75;14.00;;;;;;;;4736093;29;28236;-89
2022/01/19 00:07:30;;;;;;;;;21.00;16.50;;;;;;;;4755514;29;31135;-89
2022/01/19 00:09:55;;;;;;;;;22.25;16.00;;;;;;;;4746374;30;28477;-88
2022/01/19 00:12:55;;;;;;;;;;;;;;;;;;;;;
2022/01/19 00:15:21;;;;;;;;;17.00;16.50;;;;;;;;4758651;30;56138;-87
2022/01/19 00:17:47;;;;;;;;;19.00;16.50;;;;;;;;4742975;30;30243;-87
2022/01/19 00:20:12;;;;;;;;;19.00;14.50;;;;;;;;4753717;30;28497;-87
2022/01/19 00:22:38;;;;;;;;;23.00;16.33;;;;;;;;4767375;29;30886;-87
2022/01/19 00:25:04;;;;;;;;;15.67;11.67;;;;;;;;4761313;30;28848;-87
2022/01/19 00:27:31;;;;;;;;;19.00;14.25;;;;;;;;4751974;30;28434;-87
2022/01/19 00:29:57;;;;;;;;;19.75;14.00;;;;;;;;4750799;30;28627;-87
2022/01/19 00:32:25;;;;;;;;;19.75;15.00;;;;;;;;4751957;30;27759;-87
2022/01/19 00:34:51;;;;;;;;;16.75;13.00;;;;;;;;4751413;30;28363;-87
2022/01/19 00:37:16;;;;;;;;;17.75;16.75;;;;;;;;4736340;30;29781;-87
2022/01/19 00:39:44;;;;;;;;;24.00;16.75;;;;;;;;4735125;30;28349;-87
2022/01/19 00:42:09;;;;;;;;;22.50;16.00;;;;;;;;4741076;30;28673;-87
2022/01/19 00:44:34;;;;;;;;;16.33;13.67;;;;;;;;4735635;30;28429;-87
2022/01/19 00:46:59;;;;;;;;;14.50;12.50;;;;;;;;4734685;30;30043;-87
2022/01/19 00:49:27;;;;;;;;;26.00;17.00;;;;;;;;4751938;30;28538;-87
2022/01/19 00:51:53;;;;;;;;;20.25;18.00;;;;;;;;4735980;30;28964;-89
2022/01/19 00:54:18;;;;;;;;;22.75;17.75;;;;;;;;4752107;30;28505;-88
2022/01/19 00:56:46;;;;;;;;;22.25;16.00;;;;;;;;4734742;30;29927;-88
2022/01/19 00:59:11;;;;;;;;;19.25;16.50;;;;;;;;4745524;30;28302;-88
2022/01/19 01:01:37;;;;;;;;;21.67;13.67;;;;;;;;4746956;29;28942;-87
2022/01/19 01:04:02;;;;;;;;;20.00;18.00;;;;;;;;4751173;30;28512;-87
2022/01/19 01:06:27;;;;;;;;;28.25;20.00;;;;;;;;4752578;30;28670;-87
2022/01/19 01:08:53;;;;;;;;;21.25;17.25;;;;;;;;4751324;30;28598;-87
2022/01/19 01:11:28;;;;;;;;;;;;;;;;;;;;;
2022/01/19 01:16:40;;;;;;;;;21.25;14.00;;;;;;;;4752206;30;29085;-87
2022/01/19 01:19:07;;;;;;;;;31.25;19.25;;;;;;;;4751683;30;28559;-87
2022/01/19 01:21:33;;;;;;;;;20.50;17.50;;;;;;;;4752972;30;29560;-87
2022/01/19 01:23:58;;;;;;;;;23.75;14.00;;;;;;;;4751344;30;29007;-87
2022/01/19 01:26:23;;;;;;;;;19.50;14.50;;;;;;;;4731062;30;28968;-87
2022/01/19 01:28:49;;;;;;;;;18.75;16.75;;;;;;;;4752489;30;28446;-87
2022/01/19 01:31:15;;;;;;;;;23.50;14.75;;;;;;;;4737543;30;28442;-87
2022/01/19 01:33:40;;;;;;;;;22.00;18.00;;;;;;;;4750002;30;28412;-87
2022/01/19 01:36:08;;;;;;;;;27.25;16.25;;;;;;;;4745458;30;28442;-88
2022/01/19 01:38:37;;;;;;;;;20.75;18.00;;;;;;;;4754211;30;28516;-87
2022/01/19 01:41:02;;;;;;;;;26.25;19.25;;;;;;;;4754132;30;28492;-87
2022/01/19 01:43:28;;;;;;;;;21.00;18.00;;;;;;;;4753293;30;28465;-87
2022/01/19 01:46:00;;;;;;;;;24.67;23.00;;;;;;;;4738178;30;28559;-87
2022/01/19 01:48:26;;;;;;;;;25.50;20.75;;;;;;;;4737612;30;28837;-87
2022/01/19 01:53:36;;;;;;;;;27.50;18.50;;;;;;;;4749403;30;28448;-87
2022/01/19 01:56:06;;;;;;;;;21.00;18.75;;;;;;;;4753822;30;29293;-87
2022/01/19 01:58:33;;;;;;;;;30.50;20.25;;;;;;;;4726601;30;28422;-88
2022/01/19 02:00:59;;;;;;;;;24.00;19.50;;;;;;;;4746648;30;28563;-87
2022/01/19 02:03:24;;;;;;;;;29.00;24.25;;;;;;;;4753708;29;28563;-87
2022/01/19 02:08:42;;;;;;;;;26.50;22.75;;;;;;;;4753959;30;28473;-87
2022/01/19 02:11:35;;;;;;;;;23.00;19.00;;;;;;;;4752519;30;28539;-87
2022/01/19 02:24:27;;;;;;;;;26.00;19.00;;;;;;;;4719854;29;100080;-87
2022/01/19 02:27:02;;;;;;;;;23.25;22.25;;;;;;;;4636019;29;338444;-87
2022/01/19 02:42:32;;;;;;;;;25.75;18.75;;;;;;;;4585057;30;1641871;-87
2022/01/19 02:50:38;;;;;;;;;27.75;21.00;;;;;;;;4509032;30;1554935;-88
2022/01/19 02:55:34;;;;;;;;;;;;;;;;;;3762459;30;93951275;-87
2022/01/19 03:09:16;;;;;;;;;16.00;16.00;;;;;;;;3;88353981;96821728;-87
2022/01/19 03:14:08;;;;;;;;;31.50;17.00;;;;;;;;3;92809224;106145816;-87
2022/01/19 03:19:06;;;;;;;;;30.50;10.50;;;;;;;;3;94183457;102433716;-87
2022/01/19 03:23:50;;;;;;;;;16.50;13.00;;;;;;;;3;85905685;96551287;-87
2022/01/19 03:28:23;;;;;;;;;21.50;16.00;;;;;;;;3;79781951;96614372;-87
2022/01/19 03:32:22;;;;;;;;;10.00;10.00;;;;;;;;327239;30;95983901;-87
2022/01/19 03:37:03;;;;;;;;;14.50;14.50;;;;;;;;149578;30;95147066;-87
2022/01/19 03:42:06;;;;;;;;;32.50;20.50;;;;;;;;3;96711697;108200991;-88
2022/01/19 03:46:59;;;;;;;;;22.00;22.00;;;;;;;;3;88379981;91319056;-87
2022/01/19 03:51:34;;;;;;;;;13.50;13.50;;;;;;;;3;83261483;94651035;-87
2022/01/19 03:56:16;;;;;;;;;29.00;17.00;;;;;;;;3;96625627;96776173;-87
2022/01/19 04:00:03;;;;;;;;;18.50;15.50;;;;;;;;4;8688217;94990939;-88
2022/01/19 04:06:52;;;;;;;;;28.00;21.50;;;;;;;;4750799;30;28658;-88
2022/01/19 04:09:16;;;;;;;;;26.75;21.50;;;;;;;;4755362;30;28392;-87
2022/01/19 04:11:41;;;;;;;;;23.00;20.67;;;;;;;;4754306;29;28488;-87
2022/01/19 04:16:32;;;;;;;;;27.67;19.00;;;;;;;;4755714;30;28531;-87
2022/01/19 04:21:41;;;;;;;;;34.50;26.50;;;;;;;;4755535;30;28521;-87
2022/01/19 04:24:06;;;;;;;;;20.00;18.00;;;;;;;;4755327;29;28450;-87
2022/01/19 04:26:32;;;;;;;;;26.75;21.00;;;;;;;;4754000;30;28552;-87
2022/01/19 04:28:57;;;;;;;;;27.75;21.50;;;;;;;;4754037;30;28634;-88
2022/01/19 04:31:22;;;;;;;;;27.75;22.00;;;;;;;;4753926;30;28438;-87
2022/01/19 04:33:48;;;;;;;;;33.00;22.33;;;;;;;;4753559;30;28541;-87
2022/01/19 04:37:10;;;;;;;;;31.50;21.25;;;;;;;;4755017;30;28441;-87
2022/01/19 05:03:39;;;;;;;;;24.25;21.75;;;;;;;;4728933;30;28389;-87
2022/01/19 05:06:10;;;;;;;;;32.25;24.75;;;;;;;;4738686;30;28507;-87
2022/01/19 05:14:00;;;;;;;;;33.25;27.50;;;;;;;;4754732;30;28513;-88
2022/01/19 05:16:25;;;;;;;;;34.00;23.75;;;;;;;;4738450;30;28367;-87
2022/01/19 05:18:51;;;;;;;;;34.25;24.00;;;;;;;;4754419;30;28650;-88
2022/01/19 05:21:16;;;;;;;;;28.25;24.25;;;;;;;;4738285;30;28467;-87
2022/01/19 05:23:42;;;;;;;;;30.00;24.75;;;;;;;;4754792;30;28401;-87
2022/01/19 05:26:07;;;;;;;;;36.25;24.00;;;;;;;;4754314;30;28430;-88
2022/01/19 05:28:35;;;;;;;;;34.00;25.00;;;;;;;;4748105;30;30032;-87
2022/01/19 05:31:00;;;;;;;;;34.25;25.00;;;;;;;;4750550;30;28417;-87
2022/01/19 05:33:25;;;;;;;;;29.00;26.00;;;;;;;;4748911;30;28261;-87
2022/01/19 05:35:50;;;;;;;;;29.50;24.25;;;;;;;;4738374;30;29498;-87
2022/01/19 05:38:16;;;;;;;;;29.33;24.33;;;;;;;;4737026;30;29991;-88
2022/01/19 05:40:41;;;;;;;;;32.00;25.25;;;;;;;;4744072;30;28306;-87
2022/01/19 05:43:06;;;;;;;;;29.50;26.75;;;;;;;;4720558;30;28346;-87
2022/01/19 05:45:42;;;;;;;;;;;;;;;;;;;;;
2022/01/19 05:48:07;;;;;;;;;30.50;24.75;;;;;;;;4747060;30;58293;-88
2022/01/19 05:50:33;;;;;;;;;30.25;23.75;;;;;;;;4742318;30;28425;-89
2022/01/19 05:52:58;;;;;;;;;30.00;24.00;;;;;;;;4736777;30;28544;-88
2022/01/19 05:55:24;;;;;;;;;30.00;23.00;;;;;;;;4730705;30;28653;-88
2022/01/19 05:57:49;;;;;;;;;43.00;28.50;;;;;;;;4727156;30;28499;-88
2022/01/19 06:00:17;;;;;;;;;32.50;24.75;;;;;;;;4725744;30;29313;-88
2022/01/19 06:02:42;;;;;;;;;28.50;23.50;;;;;;;;4747844;30;29775;-88
2022/01/19 06:05:10;;;;;;;;;36.75;26.25;;;;;;;;4750100;29;28558;-88
2022/01/19 06:07:46;;;;;;;;;36.00;29.00;;;;;;;;4753227;29;28469;-88
2022/01/19 06:13:05;;;;;;;;;31.50;26.75;;;;;;;;4753085;30;28542;-88
2022/01/19 06:15:31;;;;;;;;;39.25;27.00;;;;;;;;4751783;30;29987;-88
2022/01/19 06:17:56;;;;;;;;;39.67;27.00;;;;;;;;4748952;30;30644;-88
2022/01/19 06:20:21;;;;;;;;;42.25;27.00;;;;;;;;4751653;30;28525;-88
2022/01/19 06:22:47;;;;;;;;;35.00;27.25;;;;;;;;4752864;29;28627;-86
2022/01/19 06:25:12;;;;;;;;;40.25;29.25;;;;;;;;4752700;30;28488;-86
2022/01/19 06:27:38;;;;;;;;;34.50;27.00;;;;;;;;4751900;29;29884;-85
2022/01/19 06:30:03;;;;;;;;;28.00;25.67;;;;;;;;4752404;30;28796;-86
2022/01/19 06:32:28;;;;;;;;;32.25;23.25;;;;;;;;4751187;30;28650;-86
2022/01/19 06:34:54;;;;;;;;;31.75;28.50;;;;;;;;4752714;29;28550;-87
2022/01/19 06:37:19;;;;;;;;;34.67;28.00;;;;;;;;4751757;30;29837;-83
2022/01/19 06:42:54;;;;;;;;;34.00;26.00;;;;;;;;4712835;30;28597;-85
2022/01/19 06:45:19;;;;;;;;;41.75;30.50;;;;;;;;4748775;30;28580;-85
2022/01/19 06:47:44;;;;;;;;;35.75;28.00;;;;;;;;4749407;29;28448;-85
2022/01/19 06:50:11;;;;;;;;;36.75;29.50;;;;;;;;4745968;29;28472;-85
2022/01/19 06:52:36;;;;;;;;;34.00;30.75;;;;;;;;4751419;30;28448;-86
2022/01/19 06:55:02;;;;;;;;;31.00;28.75;;;;;;;;4750714;29;28528;-85
2022/01/19 06:57:27;;;;;;;;;28.75;26.50;;;;;;;;4752281;29;28336;-85
2022/01/19 06:59:53;;;;;;;;;41.00;32.00;;;;;;;;4750992;30;28430;-85
2022/01/19 07:02:18;;;;;;;;;36.25;31.75;;;;;;;;4750673;30;28359;-85
2022/01/19 07:04:48;;;;;;;;;45.50;33.75;;;;;;;;4751554;30;28413;-85
2022/01/19 07:07:14;;;;;;;;;41.75;31.75;;;;;;;;4750454;30;30156;-85
2022/01/19 07:09:39;;;;;;;;;34.75;29.25;;;;;;;;4751147;30;28549;-85
2022/01/19 07:12:05;;;;;;;;;38.67;32.00;;;;;;;;4754935;29;28345;-85
2022/01/19 07:14:30;;;;;;;;;37.75;34.50;;;;;;;;4752465;30;28245;-85
2022/01/19 07:16:55;;;;;;;;;38.00;30.67;;;;;;;;4752583;30;28376;-85
2022/01/19 07:19:21;;;;;;;;;38.50;32.00;;;;;;;;4755035;29;28544;-85
2022/01/19 07:21:46;;;;;;;;;39.50;28.50;;;;;;;;4755369;30;28306;-85
2022/01/19 07:24:12;;;;;;;;;40.75;30.25;;;;;;;;4755633;29;28511;-85
2022/01/19 07:26:37;;;;;;;;;49.00;34.25;;;;;;;;4750840;30;28567;-85
2022/01/19 07:29:03;;;;;;;;;47.50;37.00;;;;;;;;4753689;29;29494;-86
2022/01/19 07:31:28;;;;;;;;;40.50;31.50;;;;;;;;4749085;29;28521;-85
2022/01/19 07:33:53;;;;;;;;;46.25;36.00;;;;;;;;4748658;30;28622;-86
2022/01/19 07:36:19;;;;;;;;;54.67;32.67;;;;;;;;4754986;30;28636;-85
2022/01/19 07:38:44;;;;;;;;;51.00;36.25;;;;;;;;4753826;30;28390;-86
2022/01/19 07:41:09;;;;;;;;;41.50;36.00;;;;;;;;4753564;30;28510;-86
2022/01/19 07:43:37;;;;;;;;;39.00;35.00;;;;;;;;4752963;30;28533;-85
2022/01/19 07:46:02;;;;;;;;;49.75;34.25;;;;;;;;4753666;29;28496;-85
2022/01/19 07:48:28;;;;;;;;;37.25;33.75;;;;;;;;4752772;29;28565;-85
2022/01/19 07:50:53;;;;;;;;;43.25;33.50;;;;;;;;4754506;29;28481;-85
2022/01/19 07:53:19;;;;;;;;;54.75;38.25;;;;;;;;4753748;30;28481;-85
2022/01/19 07:55:45;;;;;;;;;40.50;32.75;;;;;;;;4754223;29;29157;-85
2022/01/19 07:58:11;;;;;;;;;43.00;32.00;;;;;;;;4759908;29;28565;-86
2022/01/19 08:00:45;;;;;;;;;53.25;37.00;;;;;;;;4774185;29;8867;-85
2022/01/19 08:03:14;;;;;;;;;44.25;32.25;;;;;;;;4755926;30;8889;-85
2022/01/19 08:05:42;;;;;;;;;45.75;36.50;;;;;;;;4756409;30;8837;-85
2022/01/19 08:08:12;;;;;;;;;40.00;32.00;;;;;;;;4774577;30;8821;-85
2022/01/19 08:10:42;;;;;;;;;45.75;33.00;;;;;;;;4773947;30;8828;-85
2022/01/19 08:13:10;;;;;;;;;50.00;34.25;;;;;;;;4757458;30;8923;-86
2022/01/19 08:15:36;;;;;;;;;36.25;31.00;;;;;;;;4757476;30;8856;-86
2022/01/19 08:18:01;;;;;;;;;42.25;29.25;;;;;;;;4757672;30;8899;-85
2022/01/19 08:20:27;;;;;;;;;48.25;32.00;;;;;;;;4756540;30;8878;-85
2022/01/19 08:22:56;;;;;;;;;35.25;33.25;;;;;;;;4757960;30;8868;-85
2022/01/19 08:25:21;;;;;;;;;43.25;28.25;;;;;;;;4757185;30;8881;-86
2022/01/19 08:27:46;;;;;;;;;39.75;31.75;;;;;;;;4771398;30;8860;-86
2022/01/19 08:30:12;;;;;;;;;41.50;32.00;;;;;;;;4772686;30;8898;-85
2022/01/19 08:32:37;;;;;;;;;39.25;29.75;;;;;;;;4769674;29;8884;-86
2022/01/19 08:35:04;;;;;;;;;41.50;31.25;;;;;;;;4772079;30;8906;-86
2022/01/19 08:37:29;;;;;;;;;43.00;28.50;;;;;;;;4771571;30;8940;-85
2022/01/19 08:39:54;;;;;;;;;34.75;28.75;;;;;;;;4771759;30;8982;-86
2022/01/19 08:42:20;;;;;;;;;34.50;27.00;;;;;;;;4772480;30;8871;-85
2022/01/19 08:44:45;;;;;;;;;39.00;28.25;;;;;;;;4771061;30;8852;-85
2022/01/19 08:47:10;;;;;;;;;45.67;31.00;;;;;;;;4772422;30;8845;-85
2022/01/19 08:49:35;;;;;;;;;32.33;30.00;;;;;;;;4772720;29;11754;-85
2022/01/19 08:52:02;;;;;;;;;40.50;28.50;;;;;;;;4771933;30;10508;-85
2022/01/19 08:54:27;;;;;;;;;42.00;27.00;;;;;;;;4771508;29;8835;-85
2022/01/19 08:56:53;;;;;;;;;40.00;28.33;;;;;;;;4770335;29;8860;-86
2022/01/19 08:59:18;;;;;;;;;39.00;27.00;;;;;;;;4771450;29;9458;-85
2022/01/19 09:01:44;;;;;;;;;36.00;28.00;;;;;;;;4770985;29;8881;-85
2022/01/19 09:04:09;;;;;;;;;37.25;31.25;;;;;;;;4795290;29;8854;-85
2022/01/19 09:06:34;;;;;;;;;37.00;29.67;;;;;;;;4788140;29;8846;-85
2022/01/19 09:08:59;;;;;;;;;37.50;25.50;;;;;;;;4786340;29;11744;-85
2022/01/19 09:11:25;;;;;;;;;36.00;29.67;;;;;;;;4774820;29;8870;-85
2022/01/19 09:13:50;;;;;;;;;43.50;30.00;;;;;;;;4789535;29;9121;-85
2022/01/19 09:16:16;;;;;;;;;33.25;25.75;;;;;;;;4786260;29;8885;-84
2022/01/19 09:18:41;;;;;;;;;39.50;30.50;;;;;;;;4788315;29;8858;-84
2022/01/19 09:21:06;;;;;;;;;20.50;15.00;;;;;;;;4791638;29;8858;-84
2022/01/19 09:23:35;;;;;;;;;34.33;26.67;;;;;;;;4774548;29;9041;-84
2022/01/19 09:26:00;;;;;;;;;35.00;27.75;;;;;;;;4791990;29;10683;-84
2022/01/19 09:28:26;;;;;;;;;40.50;28.50;;;;;;;;4775139;29;8913;-84
2022/01/19 09:30:51;;;;;;;;;41.67;27.33;;;;;;;;4771604;29;8874;-84
2022/01/19 09:33:20;;;;;;;;;37.25;26.50;;;;;;;;4788590;29;11803;-84
2022/01/19 09:38:23;;;;;;;;;30.25;25.25;;;;;;;;4787082;29;8830;-84
2022/01/19 09:40:49;;;;;;;;;35.00;28.25;;;;;;;;4789113;29;8830;-83
2022/01/19 09:43:15;;;;;;;;;34.25;25.75;;;;;;;;4781251;29;8877;-84
2022/01/19 09:45:40;;;;;;;;;46.75;28.25;;;;;;;;4799355;29;8862;-84
2022/01/19 09:51:13;;;;;;;;;37.25;29.75;;;;;;;;4784639;29;8837;-84
2022/01/19 09:53:38;;;;;;;;;33.50;27.75;;;;;;;;4792836;29;8880;-84
2022/01/19 09:56:21;;;;;;;;;37.33;31.00;;;;;;;;4775326;29;8882;-86
2022/01/19 09:58:47;;;;;;;;;35.75;29.25;;;;;;;;4791382;29;11751;-85
2022/01/19 10:01:22;;;;;;;;;39.75;30.00;;;;;;;;4775122;29;9353;-83
2022/01/19 10:03:48;;;;;;;;;47.75;35.00;;;;;;;;4791301;29;8774;-87
2022/01/19 10:06:14;;;;;;;;;43.75;30.75;;;;;;;;4790256;29;9658;-85
2022/01/19 10:08:46;;;;;;;;;34.00;26.50;;;;;;;;4790462;29;8855;-85
2022/01/19 10:11:14;;;;;;;;;41.25;30.75;;;;;;;;4778151;29;8829;-85
2022/01/19 10:19:28;;;;;;;;;36.75;29.50;;;;;;;;4735074;30;9939;-84
2022/01/19 10:21:57;;;;;;;;;35.00;26.00;;;;;;;;4764445;29;8995;-85
2022/01/19 10:24:33;;;;;;;;;41.25;36.00;;;;;;;;4790031;29;8833;-84
2022/01/19 10:27:19;;;;;;;;;36.25;29.50;;;;;;;;4790881;29;8833;-85
2022/01/19 10:29:45;;;;;;;;;39.25;30.75;;;;;;;;4788896;29;8838;-85
2022/01/19 10:32:10;;;;;;;;;42.75;30.25;;;;;;;;4773507;29;9195;-84
2022/01/19 10:34:36;;;;;;;;;38.25;34.50;;;;;;;;4789593;29;8901;-84
2022/01/19 10:37:03;;;;;;;;;44.00;33.33;;;;;;;;4774601;29;8883;-85
2022/01/19 10:39:46;;;;;;;;;39.50;29.75;;;;;;;;4773420;29;11797;-84
2022/01/19 10:42:18;;;;;;;;;38.25;31.50;;;;;;;;4774163;29;8858;-84
2022/01/19 10:44:53;;;;;;;;;43.25;28.50;;;;;;;;4774096;29;8858;-84
2022/01/19 10:47:36;;;;;;;;;49.00;36.75;;;;;;;;4774081;29;8853;-85
2022/01/19 10:50:01;;;;;;;;;51.50;35.50;;;;;;;;4790231;29;8848;-85
2022/01/19 10:52:28;;;;;;;;;45.50;35.50;;;;;;;;4777498;29;8904;-85
2022/01/19 10:54:53;;;;;;;;;44.25;32.75;;;;;;;;4790393;29;8861;-84
2022/01/19 10:57:19;;;;;;;;;50.50;35.25;;;;;;;;4790639;29;8865;-86
2022/01/19 10:59:44;;;;;;;;;53.25;38.25;;;;;;;;4770467;30;8886;-85
2022/01/19 11:02:12;;;;;;;;;53.00;36.75;;;;;;;;4771045;30;8900;-85
2022/01/19 11:04:38;;;;;;;;;47.25;32.75;;;;;;;;4771677;30;8866;-85
2022/01/19 11:07:11;;;;;;;;;52.25;35.50;;;;;;;;4772488;30;8887;-84
2022/01/19 11:09:56;;;;;;;;;46.75;38.25;;;;;;;;4771269;30;9947;-84
2022/01/19 11:12:25;;;;;;;;;51.75;39.50;;;;;;;;4772053;30;8898;-84
2022/01/19 11:14:50;;;;;;;;;60.00;43.50;;;;;;;;4772262;30;9736;-85
2022/01/19 11:17:15;;;;;;;;;57.00;41.33;;;;;;;;4771667;30;8829;-85
2022/01/19 11:19:43;;;;;;;;;59.25;44.75;;;;;;;;4770826;30;9377;-84
2022/01/19 11:22:15;;;;;;;;;61.75;42.50;;;;;;;;4756185;30;8843;-85
2022/01/19 11:27:53;;;;;;;;;63.25;42.50;;;;;;;;4769731;30;9873;-83
2022/01/19 11:30:22;;;;;;;;;65.25;46.75;;;;;;;;4770947;30;8800;-86
2022/01/19 11:33:09;;;;;;;;;61.25;44.00;;;;;;;;4770135;30;8808;-83
2022/01/19 11:35:35;;;;;;;;;65.25;43.50;;;;;;;;4767904;30;8930;-83
2022/01/19 11:38:00;;;;;;;;;64.75;45.75;;;;;;;;4766966;30;8881;-82
2022/01/19 11:40:33;;;;;;;;;63.25;42.75;;;;;;;;4751287;30;8852;-83
2022/01/19 11:43:25;;;;;;;;;63.25;47.25;;;;;;;;4771158;29;8895;-84
2022/01/19 11:45:51;;;;;;;;;63.00;43.50;;;;;;;;4748165;30;9048;-84
2022/01/19 11:48:18;;;;;;;;;63.00;46.50;;;;;;;;4766899;30;8976;-84
2022/01/19 11:54:29;;;;;;;;;;;;;;;;;;;;;
2022/01/19 11:57:02;;;;;;;;;62.75;45.75;;;;;;;;4729287;30;36910;-85
2022/01/19 12:00:02;;;;;;;;;61.75;44.25;;;;;;;;4719375;30;8842;-85
2022/01/19 12:02:38;;;;;;;;;54.25;42.00;;;;;;;;4719072;30;8834;-84
2022/01/19 12:05:10;;;;;;;;;59.75;39.75;;;;;;;;4752102;30;8926;-83
2022/01/19 12:08:02;;;;;;;;;51.75;40.75;;;;;;;;4762305;30;9755;-84
2022/01/19 12:14:06;;;;;;;;;52.50;37.25;;;;;;;;4744870;30;8853;-84
2022/01/19 12:19:07;;;;;;;;;57.25;39.75;;;;;;;;4752608;30;8831;-83
2022/01/19 12:21:32;;;;;;;;;50.00;36.00;;;;;;;;4763020;29;8839;-84
2022/01/19 12:24:16;;;;;;;;;48.75;35.25;;;;;;;;4773084;29;8879;-85
2022/01/19 12:26:58;;;;;;;;;56.75;37.75;;;;;;;;4772797;30;9040;-82
2022/01/19 12:29:32;;;;;;;;;42.50;31.50;;;;;;;;4774207;29;8844;-83
2022/01/19 12:32:00;;;;;;;;;33.75;27.25;;;;;;;;4773581;29;8855;-83
2022/01/19 12:34:26;;;;;;;;;41.00;30.75;;;;;;;;4774219;29;8835;-83
2022/01/19 12:36:52;;;;;;;;;34.00;29.00;;;;;;;;4774131;29;8858;-83
2022/01/19 12:39:26;;;;;;;;;39.50;28.50;;;;;;;;4772870;30;8863;-83
2022/01/19 12:41:59;;;;;;;;;38.25;28.25;;;;;;;;4774039;29;8827;-83
2022/01/19 12:44:37;;;;;;;;;33.00;25.25;;;;;;;;4772898;30;8796;-83
2022/01/19 12:47:22;;;;;;;;;35.75;27.00;;;;;;;;4773807;29;8831;-83
2022/01/19 12:49:47;;;;;;;;;31.25;25.50;;;;;;;;4773768;30;8855;-83
2022/01/19 12:52:16;;;;;;;;;32.00;26.50;;;;;;;;4774191;29;8921;-83
2022/01/19 12:54:42;;;;;;;;;38.50;30.50;;;;;;;;4773436;29;8881;-83
2022/01/19 12:57:13;;;;;;;;;33.50;26.50;;;;;;;;4773906;29;8867;-83
2022/01/19 12:59:38;;;;;;;;;34.50;24.00;;;;;;;;4773667;29;8924;-83
2022/01/19 13:02:04;;;;;;;;;24.25;24.25;;;;;;;;4773853;30;8888;-83
2022/01/19 13:04:30;;;;;;;;;36.75;26.00;;;;;;;;4757603;30;8970;-83
2022/01/19 13:06:57;;;;;;;;;36.75;26.25;;;;;;;;4757582;30;9534;-81
2022/01/19 13:09:37;;;;;;;;;27.75;24.50;;;;;;;;4773760;30;8879;-81
2022/01/19 13:12:14;;;;;;;;;30.50;25.75;;;;;;;;4773779;30;8844;-83
2022/01/19 13:14:42;;;;;;;;;34.25;26.25;;;;;;;;4772527;30;8793;-85
2022/01/19 13:17:07;;;;;;;;;35.75;24.25;;;;;;;;4756943;30;8809;-80
2022/01/19 13:19:32;;;;;;;;;29.67;26.33;;;;;;;;4756004;30;9690;-81
2022/01/19 13:21:59;;;;;;;;;36.33;26.00;;;;;;;;4772072;30;11630;-81
2022/01/19 13:24:30;;;;;;;;;39.75;30.00;;;;;;;;4762427;30;10554;-80
2022/01/19 13:26:59;;;;;;;;;41.25;30.25;;;;;;;;4757327;30;8864;-81
2022/01/19 13:29:25;;;;;;;;;33.00;26.00;;;;;;;;4771527;30;8944;-80
2022/01/19 13:31:54;;;;;;;;;33.50;27.25;;;;;;;;4773076;30;8933;-81
2022/01/19 13:34:20;;;;;;;;;31.50;19.00;;;;;;;;4758362;30;8789;-81
2022/01/19 13:36:51;;;;;;;;;31.00;23.00;;;;;;;;4767491;30;9695;-82
2022/01/19 13:39:19;;;;;;;;;31.50;26.00;;;;;;;;4773084;30;8832;-81
2022/01/19 13:41:44;;;;;;;;;29.75;20.50;;;;;;;;4754131;30;9361;-81
2022/01/19 13:44:11;;;;;;;;;31.75;20.75;;;;;;;;4766389;30;8832;-81
2022/01/19 13:46:39;;;;;;;;;29.00;22.00;;;;;;;;4769465;30;9704;-79
2022/01/19 13:49:05;;;;;;;;;34.25;26.00;;;;;;;;4752921;30;8842;-81
2022/01/19 13:51:32;;;;;;;;;30.75;22.50;;;;;;;;4753901;30;8922;-81
2022/01/19 13:54:01;;;;;;;;;35.00;23.25;;;;;;;;4756870;30;8796;-80
2022/01/19 13:56:27;;;;;;;;;34.00;25.00;;;;;;;;4746914;30;9302;-83
2022/01/19 13:58:55;;;;;;;;;33.00;26.75;;;;;;;;4770424;29;8838;-82
2022/01/19 14:01:32;;;;;;;;;29.00;25.75;;;;;;;;4764608;30;9879;-82
2022/01/19 14:04:04;;;;;;;;;29.75;28.75;;;;;;;;4772213;29;8799;-82
2022/01/19 14:06:31;;;;;;;;;32.75;26.00;;;;;;;;4770468;30;8870;-82
2022/01/19 14:09:03;;;;;;;;;30.50;26.25;;;;;;;;4771870;29;9790;-82
2022/01/19 14:11:29;;;;;;;;;41.25;31.50;;;;;;;;4768864;30;8827;-82
2022/01/19 14:14:01;;;;;;;;;34.75;28.25;;;;;;;;4770984;29;8886;-82
2022/01/19 14:16:32;;;;;;;;;30.50;25.25;;;;;;;;4774655;29;9886;-82
2022/01/19 14:19:13;;;;;;;;;31.75;28.25;;;;;;;;4771978;29;8875;-83
2022/01/19 14:22:28;;;;;;;;;;;;;;;;;;;;;
2022/01/19 14:24:42;;;;;;;;;31.75;24.00;;;;;;;;4768987;30;8804;-83
2022/01/19 14:27:13;;;;;;;;;27.33;22.00;;;;;;;;4771260;30;8895;-83
2022/01/19 14:29:57;;;;;;;;;33.25;23.00;;;;;;;;4769747;29;11891;-83
2022/01/19 14:32:39;;;;;;;;;27.75;19.75;;;;;;;;4770961;30;9025;-83
2022/01/19 14:35:22;;;;;;;;;31.00;27.00;;;;;;;;4769077;30;9899;-83
2022/01/19 14:38:14;;;;;;;;;34.75;26.50;;;;;;;;4771816;29;9817;-83
2022/01/19 14:40:51;;;;;;;;;32.75;23.75;;;;;;;;4744316;30;9821;-83
2022/01/19 14:43:18;;;;;;;;;27.75;23.00;;;;;;;;4771000;30;8811;-82
2022/01/19 14:46:10;;;;;;;;;30.00;22.50;;;;;;;;4772419;29;9245;-82
2022/01/19 14:48:37;;;;;;;;;35.00;24.25;;;;;;;;4771607;29;8811;-83
2022/01/19 14:51:37;;;;;;;;;27.75;24.25;;;;;;;;4771900;29;8865;-83
2022/01/19 14:54:08;;;;;;;;;39.00;25.50;;;;;;;;4740392;30;8866;-83
2022/01/19 16:44:44;;;;;;;;;32.25;23.00;;;;;;;;4744986;29;28938;-85
2022/01/19 16:47:32;;;;;;;;;40.00;30.75;;;;;;;;4779590;29;28922;-85
2022/01/19 16:50:10;;;;;;;;;;;;;;;;;;;;;
2022/01/19 16:52:55;;;;;;;;;37.75;29.25;;;;;;;;4789878;29;57500;-84
2022/01/19 16:55:38;;;;;;;;;35.50;25.50;;;;;;;;4790371;29;28564;-85
2022/01/19 16:58:27;;;;;;;;;34.25;28.00;;;;;;;;4774163;29;28983;-85
2022/01/19 17:01:04;;;;;;;;;38.00;29.75;;;;;;;;4789754;29;28664;-85
2022/01/19 17:04:02;;;;;;;;;;;;;;;;;;;;;
2022/01/19 17:06:40;;;;;;;;;30.50;25.75;;;;;;;;4782310;29;57588;-85
2022/01/19 17:09:19;;;;;;;;;;;;;;;;;;;;;
2022/01/19 17:12:37;;;;;;;;;;;;;;;;;;;;;
2022/01/19 17:16:08;;;;;;;;;34.75;28.75;;;;;;;;4784588;29;28642;-85
2022/01/19 17:24:41;;;;;;;;;;;;;;;;;;;;;
2022/01/19 17:27:39;;;;;;;;;36.75;31.00;;;;;;;;4783393;29;57653;-86
2022/01/19 17:42:59;;;;;;;;;;;;;;;;;;;;;
2022/01/19 17:45:43;;;;;;;;;40.25;30.75;;;;;;;;4762160;29;57337;-87
2022/01/19 17:54:19;;;;;;;;;37.00;32.00;;;;;;;;4697047;30;28998;-85
2022/01/19 17:56:45;;;;;;;;;44.75;33.00;;;;;;;;4740615;29;28438;-85
2022/01/19 17:59:10;;;;;;;;;35.50;29.50;;;;;;;;4754142;29;28430;-85
2022/01/19 18:01:36;;;;;;;;;42.00;26.25;;;;;;;;4740460;29;28525;-84
2022/01/19 18:04:01;;;;;;;;;45.75;27.50;;;;;;;;4762148;29;28532;-85
2022/01/19 18:06:27;;;;;;;;;31.00;27.25;;;;;;;;4759506;29;28504;-86
2022/01/19 18:08:53;;;;;;;;;24.75;24.25;;;;;;;;4744753;30;28389;-86
2022/01/19 18:11:21;;;;;;;;;34.75;26.25;;;;;;;;4755149;29;28632;-86
2022/01/19 18:13:46;;;;;;;;;26.25;19.75;;;;;;;;4764768;29;28597;-85
2022/01/19 18:16:12;;;;;;;;;42.25;27.50;;;;;;;;4759825;29;28436;-84
2022/01/19 18:18:40;;;;;;;;;37.75;27.50;;;;;;;;4755515;29;28390;-84
2022/01/19 18:21:21;;;;;;;;;;;;;;;;;;;;;
2022/01/19 18:27:01;;;;;;;;;34.00;24.75;;;;;;;;4733162;29;28440;-83
2022/01/19 18:29:56;;;;;;;;;29.00;24.50;;;;;;;;4740868;29;28544;-84
2022/01/19 18:32:46;;;;;;;;;36.00;27.75;;;;;;;;4767005;29;28355;-84
2022/01/19 18:38:22;;;;;;;;;39.00;29.75;;;;;;;;4752375;29;28414;-84
2022/01/19 18:41:27;;;;;;;;;;;;;;;;;;;;;
2022/01/19 18:50:03;;;;;;;;;;;;;;;;;;;;;
2022/01/19 18:52:41;;;;;;;;;;;;;;;;;;;;;
2022/01/19 18:55:24;;;;;;;;;;;;;;;;;;;;;
2022/01/19 18:57:58;;;;;;;;;36.75;28.75;;;;;;;;4758293;29;56994;-85
2022/01/19 19:00:46;;;;;;;;;45.25;29.50;;;;;;;;4760998;29;28503;-85
2022/01/19 19:03:34;;;;;;;;;41.50;32.25;;;;;;;;4759533;29;28531;-84
2022/01/19 19:06:09;;;;;;;;;39.50;28.75;;;;;;;;4755736;29;28801;-84
2022/01/19 19:08:42;;;;;;;;;40.00;28.00;;;;;;;;4763165;29;28871;-84
2022/01/19 19:14:35;;;;;;;;;;;;;;;;;;;;;
2022/01/19 19:26:30;;;;;;;;;38.00;25.25;;;;;;;;4762707;29;31007;-85
2022/01/19 19:35:06;;;;;;;;;37.00;28.50;;;;;;;;4755208;29;52202;-83
2022/01/19 19:37:39;;;;;;;;;42.75;30.50;;;;;;;;4761603;29;32649;-83
2022/01/19 19:40:05;;;;;;;;;45.50;33.75;;;;;;;;4768299;29;33315;-83
2022/01/19 19:42:31;;;;;;;;;46.75;34.00;;;;;;;;4765108;29;30567;-84
2022/01/19 19:44:59;;;;;;;;;48.00;32.00;;;;;;;;4765762;29;29137;-83
2022/01/19 19:47:30;;;;;;;;;37.50;30.50;;;;;;;;4744690;29;29462;-83
2022/01/19 19:50:07;;;;;;;;;41.00;27.25;;;;;;;;4768728;29;31576;-87
2022/01/19 19:52:33;;;;;;;;;48.75;34.75;;;;;;;;4747114;29;29338;-86
2022/01/19 19:55:21;;;;;;;;;41.75;33.50;;;;;;;;4768580;29;29394;-85
2022/01/19 19:58:12;;;;;;;;;;;;;;;;;;;;;
2022/01/19 20:00:56;;;;;;;;;45.75;37.75;;;;;;;;4758431;29;57325;-87
2022/01/19 20:03:46;;;;;;;;;;;;;;;;;;;;;
2022/01/19 20:07:31;;;;;;;;;43.00;33.75;;;;;;;;4762763;29;61120;-87
2022/01/19 20:09:47;;;;;;;;;43.00;34.25;;;;;;;;4748581;29;42644;-86